Ana Sayfa
METAR-TAF:

METAR-TAF

Havaalanları :

Orange County Airport

Montgomery, New York, Amerika Birleşik Devletleri

Enlem: 41-30-33N, Boylam: 074-15-54W, yükseklik: 111 m

Güncel hava durumu gözlemi

Rapor saat 11:54 UTC de 36 dakika önce yapıldı.
Sakin rüzgar
Sıcaklık 17°C
Nem 100%
Basınç 1012 hPa
Görüş mesafesi: 16.1 km
9000 ft yükseklikte çok bulutlu

METAR: KMGJ 161154Z AUTO 00000KT 10SM OVC090 17/17 A2988 RMK AO2 SLP118 60002 70005 T01720167 10172 20161 57006

Saat: 08:30 (12:30 UTC)


TAF: eksik

4.000'den fazla havaalanı için hava durumu gözlemleri ve tahminleri (METAR ve TAF raporları).

Kullanılabilir istasyonlar harita üzerinde sarı ve kırmızı noktalarla gösterilir.

İstasyonun adını görmek için fareyi noktanın üzerinde gezdirin.

Sonrasında hava gözlem ve tahminlerini görmek için tıklayın.

Haritayı değiştirmek için: yaklaştırmak için siyah artı işaretli yeşil düğmeye ve uzaklaştırmak için de eksi işaretli düğmeye hızla tıklayın; bitişik haritalar için yeşil okları kullanın.


METAR-TAF: